Latest Weather Observations for Casterton

IDV60801

Issued at 9:31 pm EDT Thursday 11 February 2016 (issued every 30 minutes, with the page automatically refreshed every 10 minutes)

About weather observations | Map of weather stations | Latest weather observations for VIC | Other Formats
Station Details ID: 090182 Name: CASTERTON Lat: -37.58 Lon: 141.33 Height: 130.6 m
Data from the previous 72 hours. | See also: Recent months at Casterton
Date/Time
EDT
Temp
°C
App
Temp
°C
Dew
Point
Rel
Hum
%
Delta-T
°C
Wind Press
QNH
hPa
Press
MSL
hPa
Rain
since 9 am
mm
Dir
 
Spd
km/h
Gust
km/h
Spd
kts
Gust
kts
11/09:30pm 18.0 15.7 12.9 72 2.9 SE 17 32 9 17 1017.1 - 0.0
11/09:00pm 18.5 15.4 12.3 67 3.5 SSE 20 32 11 17 1016.9 1016.4 0.0
11/08:30pm 19.6 16.2 12.6 64 4.0 SE 22 30 12 16 1016.7 - 0.0
11/08:00pm 20.9 17.4 12.3 58 4.9 SSE 22 30 12 16 1016.3 - 0.0
11/07:30pm 22.8 19.7 12.1 51 6.1 SSE 20 32 11 17 1015.6 - 0.0
11/07:00pm 24.2 20.6 11.9 46 7.0 SE 22 32 12 17 1015.2 - 0.0
11/06:30pm 25.2 21.8 11.4 42 7.8 SE 20 28 11 15 1014.9 - 0.0
11/06:00pm 26.2 23.0 11.2 39 8.5 SE 19 26 10 14 1014.6 1014.1 0.0
11/05:30pm 26.0 22.1 12.1 42 8.0 SW 24 33 13 18 1014.4 - 0.0
11/05:00pm 26.8 23.2 11.7 39 8.7 SW 22 35 12 19 1014.3 - 0.0
11/04:30pm 27.8 24.8 11.8 37 9.3 SW 19 39 10 21 1014.5 - 0.0
11/04:00pm 28.0 25.4 10.7 34 9.9 S 15 24 8 13 1014.6 - 0.0
11/03:30pm 27.6 25.2 9.9 33 9.9 SSW 13 24 7 13 1014.9 - 0.0
11/03:00pm 27.6 25.4 10.8 35 9.6 SSE 13 20 7 11 1015.0 1014.5 0.0
11/02:30pm 27.0 25.4 11.5 38 8.9 S 11 20 6 11 1015.4 - 0.0
11/02:00pm 25.9 23.6 10.5 38 8.7 SE 13 24 7 13 1015.9 - 0.0
11/01:30pm 25.7 23.6 11.1 40 8.3 SSE 13 26 7 14 1016.1 - 0.0
11/01:00pm 25.0 22.9 11.2 42 7.8 SE 13 26 7 14 1016.3 - 0.0
11/12:30pm 23.8 20.4 11.2 45 7.1 ESE 20 30 11 16 1016.6 - 0.0
11/12:00pm 22.6 19.8 11.4 49 6.3 SE 17 28 9 15 1017.0 1016.5 0.0
11/11:30am 21.8 19.1 11.8 53 5.6 SE 17 24 9 13 1017.0 - 0.0
11/11:00am 20.9 17.7 11.8 56 5.1 SE 20 28 11 15 1017.1 - 0.0
11/10:30am 21.0 17.7 12.7 59 4.7 SE 22 32 12 17 1017.4 - 0.0
11/10:00am 20.6 17.8 13.1 62 4.3 SE 20 28 11 15 1017.6 - 0.0
11/09:30am 18.8 16.3 13.6 72 3.0 SSE 19 28 10 15 1017.7 - 0.0
11/09:00am 17.5 16.0 14.2 81 1.9 SE 15 22 8 12 1017.6 1017.1 0.0
11/08:30am 16.7 15.9 15.1 90 0.9 SE 13 20 7 11 1017.3 - 0.0
11/08:00am 15.2 13.9 14.9 98 0.2 SE 15 20 8 11 1017.0 - 0.0
11/07:30am 14.3 13.5 14.0 98 0.2 SE 11 17 6 9 1016.8 - 0.0
11/07:00am 13.7 12.7 13.4 98 0.2 SE 11 17 6 9 1016.7 - 0.0
11/06:30am 13.9 12.6 13.6 98 0.2 SE 13 19 7 10 1016.2 - 0.0
11/06:00am 14.2 13.0 13.9 98 0.2 SE 13 17 7 9 1016.0 1015.5 0.0
11/05:30am 14.2 13.4 13.9 98 0.2 SE 11 19 6 10 1015.9 - 0.0
11/05:00am 14.3 13.5 14.0 98 0.2 SSE 11 15 6 8 1015.8 - 0.0
11/04:30am 14.2 13.4 13.9 98 0.2 SSE 11 15 6 8 1015.8 - 0.0
11/04:00am 14.2 13.4 13.9 98 0.2 SE 11 13 6 7 1015.7 - 0.0
11/03:30am 14.1 13.6 13.8 98 0.2 SSE 9 13 5 7 1015.8 - 0.0
11/03:00am 14.0 13.1 13.7 98 0.2 SE 11 13 6 7 1015.8 1015.3 0.0
11/02:30am 13.9 13.3 13.6 98 0.2 SE 9 13 5 7 1016.1 - 0.0
11/02:00am 13.9 13.3 13.6 98 0.2 SSE 9 11 5 6 1016.3 - 0.0
11/01:30am 14.0 13.5 13.7 98 0.2 SE 9 11 5 6 1016.5 - 0.0
11/01:00am 14.2 13.9 13.2 94 0.6 SE 7 9 4 5 1016.7 - 0.0
11/12:30am 14.6 14.3 13.3 92 0.7 SSE 7 11 4 6 1016.8 - 0.0
11/12:00am 15.2 14.5 13.1 87 1.2 SE 9 13 5 7 1016.7 1016.2 0.0
 
Date/Time
EDT
Temp
°C
App
Temp
°C
Dew
Point
Rel
Hum
%
Delta-T
°C
Wind Press
QNH
hPa
Press
MSL
hPa
Rain
since 9 am
mm
Dir
 
Spd
km/h
Gust
km/h
Spd
kts
Gust
kts
10/11:30pm 15.8 14.6 12.9 83 1.6 SE 11 17 6 9 1016.9 - 0.0
10/11:00pm 16.0 14.9 13.1 83 1.6 SSE 11 15 6 8 1017.0 - 0.0
10/10:30pm 16.1 14.9 12.7 80 1.9 S 11 17 6 9 1016.8 - 0.0
10/10:00pm 16.9 14.8 12.4 75 2.5 S 15 19 8 10 1016.6 - 0.0
10/09:30pm 17.6 15.5 12.3 71 2.9 S 15 22 8 12 1016.4 - 0.0
10/09:00pm 18.4 15.5 12.2 67 3.5 S 19 26 10 14 1016.1 1015.6 0.0
10/08:30pm 19.6 17.0 11.9 61 4.3 SSW 17 26 9 14 1015.8 - 0.0
10/08:00pm 21.4 18.0 11.4 53 5.6 SSW 20 30 11 16 1015.4 - 0.0
10/07:30pm 23.4 20.0 11.1 46 6.9 SSW 20 28 11 15 1014.9 - 0.0
10/07:00pm 24.5 20.3 11.1 43 7.6 SSW 24 32 13 17 1014.7 - 0.0
10/06:30pm 25.8 21.6 11.2 40 8.3 SSW 24 39 13 21 1014.3 - 0.0
10/06:00pm 27.7 24.2 10.9 35 9.6 SW 20 32 11 17 1014.0 1013.5 0.0
10/05:30pm 27.8 24.0 9.1 31 10.4 S 19 26 10 14 1013.8 - 0.0
10/05:00pm 29.0 25.6 10.6 32 10.5 SSW 19 28 10 15 1013.8 - 0.0
10/04:30pm 27.8 24.4 10.5 34 9.8 S 19 33 10 18 1013.9 - 0.0
10/04:00pm 29.6 26.7 9.7 29 11.2 SSW 15 26 8 14 1013.9 - 0.0
10/03:30pm 28.2 25.9 9.0 30 10.6 SE 11 20 6 11 1014.2 - 0.0
10/03:00pm 28.2 26.0 9.5 31 10.4 S 11 19 6 10 1014.6 1014.1 0.0
10/02:30pm 26.8 23.9 9.6 34 9.6 S 15 26 8 14 1014.9 - 0.0
10/02:00pm 26.3 24.6 10.0 36 9.1 W 9 20 5 11 1015.1 - 0.0
10/01:30pm 24.7 23.5 11.6 44 7.5 S 9 20 5 11 1015.3 - 0.0
10/01:00pm 24.1 22.5 11.4 45 7.2 SE 11 22 6 12 1015.8 - 0.0
10/12:30pm 22.8 20.7 11.2 48 6.5 SE 13 24 7 13 1016.1 - 0.0
10/12:00pm 22.1 19.6 10.9 49 6.2 SSE 15 22 8 12 1016.5 1016.0 0.0
10/11:30am 20.3 17.8 11.2 56 5.0 SE 15 26 8 14 1016.8 - 0.0
10/11:00am 20.8 19.1 12.5 59 4.7 SSE 13 26 7 14 1016.9 - 0.0
10/10:30am 19.2 16.8 12.7 66 3.7 S 17 24 9 13 1017.0 - 0.0
10/10:00am 17.8 15.5 12.9 73 2.8 SE 17 22 9 12 1016.9 - 0.0
10/09:30am 17.0 15.3 13.5 80 2.0 SE 15 19 8 10 1016.6 - 0.0
10/09:00am 15.9 14.3 13.9 88 1.1 ESE 15 22 8 12 1016.4 1015.9 0.0
10/08:30am 14.2 13.4 13.9 98 0.2 SE 11 17 6 9 1016.4 - 0.0
10/08:00am 12.8 11.9 12.6 99 0.1 SSE 9 15 5 8 1016.2 - 0.0
10/07:30am 11.0 9.9 10.7 98 0.2 ENE 7 11 4 6 1015.6 - 0.0
10/07:00am 12.3 10.8 12.0 98 0.2 ESE 11 19 6 10 1015.6 - 0.0
10/06:30am 12.1 11.0 11.9 99 0.1 SE 9 15 5 8 1015.5 - 0.0
10/06:00am 11.9 11.1 11.6 98 0.2 SSE 7 11 4 6 1015.8 1015.3 0.0
10/05:30am 12.0 10.8 11.7 98 0.2 SE 9 11 5 6 1015.3 - 0.0
10/05:00am 12.7 11.7 12.4 98 0.2 SE 9 13 5 7 1015.2 - 0.0
10/04:30am 13.3 11.8 13.0 98 0.2 ESE 13 17 7 9 1015.0 - 0.0
10/04:00am 13.8 12.4 13.5 98 0.2 ESE 13 20 7 11 1015.3 - 0.0
10/03:30am 13.6 12.6 13.3 98 0.2 ESE 11 17 6 9 1015.6 - 0.0
10/03:00am 13.2 12.0 12.9 98 0.2 SE 11 17 6 9 1015.9 1015.4 0.0
10/02:30am 13.5 12.4 13.2 98 0.2 SSE 11 15 6 8 1016.4 - 0.0
10/02:00am 13.6 12.6 13.3 98 0.2 SE 11 15 6 8 1016.5 - 0.0
10/01:30am 13.8 12.8 13.5 98 0.2 SE 11 15 6 8 1016.8 - 0.0
10/01:00am 14.4 13.1 13.8 96 0.3 ESE 13 17 7 9 1017.0 - 0.0
10/12:30am 14.4 13.4 13.4 94 0.6 ESE 11 17 6 9 1017.2 - 0.0
10/12:00am 14.7 13.7 13.4 92 0.7 ESE 11 15 6 8 1017.2 1016.7 0.0
 
Date/Time
EDT
Temp
°C
App
Temp
°C
Dew
Point
Rel
Hum
%
Delta-T
°C
Wind Press
QNH
hPa
Press
MSL
hPa
Rain
since 9 am
mm
Dir
 
Spd
km/h
Gust
km/h
Spd
kts
Gust
kts
09/11:30pm 15.0 14.3 13.2 89 1.0 SE 9 13 5 7 1017.4 - 0.0
09/11:00pm 15.8 14.2 12.9 83 1.6 SE 13 17 7 9 1017.6 - 0.0
09/10:30pm 16.6 14.9 12.4 76 2.3 SSE 13 17 7 9 1017.7 - 0.0
09/10:00pm 17.8 15.6 12.0 69 3.2 SE 15 20 8 11 1017.7 - 0.0
09/09:30pm 19.2 16.9 11.7 62 4.2 SSE 15 20 8 11 1017.3 - 0.0
09/09:00pm 20.1 19.1 12.3 61 4.4 S 9 15 5 8 1017.1 1016.6 0.0
09/08:30pm 21.3 19.6 12.4 57 5.1 SSW 13 20 7 11 1017.0 - 0.0
09/08:00pm 23.0 20.1 12.3 51 6.1 SSW 19 28 10 15 1017.0 - 0.0
09/07:30pm 25.8 22.8 11.9 42 8.0 SSW 19 28 10 15 1016.6 - 0.0
09/07:00pm 27.9 25.0 11.0 35 9.7 SSE 17 28 9 15 1016.4 - 0.0
09/06:30pm 28.7 25.5 11.3 34 10.0 S 19 30 10 16 1016.3 - 0.0
09/06:00pm 28.5 24.3 11.1 34 10.0 SSW 24 33 13 18 1016.2 1015.7 0.0
09/05:30pm 30.4 27.6 11.4 31 11.1 S 17 30 9 16 1016.2 - 0.0
09/05:00pm 30.9 27.6 8.0 24 12.7 S 15 22 8 12 1016.4 - 0.0
09/04:30pm 30.7 28.4 5.9 21 13.2 SSE 7 19 4 10 1016.8 - 0.0
09/04:00pm 30.6 28.0 7.7 24 12.6 SSE 11 20 6 11 1017.1 - 0.0
09/03:30pm 29.6 27.5 8.1 26 11.8 S 9 15 5 8 1017.5 - 0.0
09/03:00pm 29.3 26.3 7.8 26 11.7 SSW 13 20 7 11 1017.9 1017.4 0.0
09/02:30pm 28.6 25.1 7.2 26 11.5 S 15 24 8 13 1018.4 - 0.0
09/02:00pm 28.4 25.8 9.2 30 10.7 ESE 13 19 7 10 1018.8 - 0.0
09/01:30pm 26.7 24.0 9.1 33 9.7 SSW 13 22 7 12 1019.2 - 0.0
09/01:00pm 25.7 23.6 9.9 37 8.8 SSE 11 20 6 11 1019.6 - 0.0
09/12:30pm 24.7 22.6 9.8 39 8.2 E 11 19 6 10 1020.1 - 0.0
09/12:00pm 23.5 20.7 9.9 42 7.4 ESE 15 24 8 13 1020.6 1020.1 0.0
09/11:30am 22.0 18.8 9.9 46 6.6 SSE 17 24 9 13 1021.0 - 0.0
09/11:00am 21.4 18.5 10.9 51 5.8 SE 17 24 9 13 1021.2 - 0.0
09/10:30am 20.2 17.0 11.4 57 4.9 ESE 19 30 10 16 1021.2 - 0.0
09/10:00am 18.6 15.4 11.4 63 4.0 ESE 19 24 10 13 1021.5 - 0.0
09/09:30am 17.4 13.5 12.1 71 2.9 ESE 24 35 13 19 1021.6 - 0.0
09/09:00am 16.3 13.2 12.1 76 2.3 ESE 20 32 11 17 1021.7 1021.2 0.0
09/08:30am 15.6 13.3 13.1 85 1.4 ESE 17 26 9 14 1021.8 - 0.0
09/08:00am 14.4 12.9 13.1 92 0.7 ESE 13 20 7 11 1021.8 - 0.0
09/07:30am 13.3 11.8 13.0 98 0.2 ESE 13 17 7 9 1021.8 - 0.0
09/07:00am 12.8 11.5 12.5 98 0.2 SE 11 15 6 8 1021.6 - 0.0
09/06:30am 12.8 11.5 12.5 98 0.2 SE 11 17 6 9 1021.5 - 0.0
09/06:00am 13.3 12.2 13.0 98 0.2 SE 11 15 6 8 1021.3 1020.8 0.0
09/05:30am 13.5 12.3 12.9 96 0.3 ESE 11 15 6 8 1021.2 - 0.0
09/05:00am 13.7 12.2 13.2 97 0.3 SE 13 20 7 11 1021.1 - 0.0
09/04:30am 13.7 12.7 13.4 98 0.2 ESE 11 17 6 9 1021.3 - 0.0
09/04:00am 13.6 12.6 13.3 98 0.2 ESE 11 15 6 8 1021.6 - 0.0
09/03:30am 13.6 12.9 13.1 97 0.3 SE 9 13 5 7 1021.7 - 0.0
09/03:00am 13.7 13.0 13.1 96 0.3 ESE 9 13 5 7 1021.9 1021.4 0.0
09/02:30am 14.1 13.4 13.3 95 0.4 ESE 9 13 5 7 1022.1 - 0.0
09/02:00am 14.0 13.3 13.2 95 0.4 ESE 9 13 5 7 1022.3 - 0.0
09/01:30am 14.6 14.0 13.5 93 0.6 ESE 9 11 5 6 1022.6 - 0.0
09/01:00am 15.1 14.2 13.6 91 0.8 ESE 11 17 6 9 1022.8 - 0.0
09/12:30am 15.4 14.1 13.8 90 0.9 SE 13 20 7 11 1022.9 - 0.0
09/12:00am 15.9 13.9 13.9 88 1.1 SE 17 22 9 12 1023.1 1022.6 0.0
 
Date/Time
EDT
Temp
°C
App
Temp
°C
Dew
Point
Rel
Hum
%
Delta-T
°C
Wind Press
QNH
hPa
Press
MSL
hPa
Rain
since 9 am
mm
Dir
 
Spd
km/h
Gust
km/h
Spd
kts
Gust
kts
08/11:30pm 16.2 14.1 13.7 85 1.4 SE 17 26 9 14 1023.3 - 0.0
08/11:00pm 16.3 14.9 13.4 83 1.6 SSE 13 20 7 11 1023.4 - 0.0
08/10:30pm 16.7 15.6 13.2 80 2.0 SSE 11 15 6 8 1023.4 - 0.0
08/10:00pm 16.8 15.4 12.3 75 2.5 SE 11 15 6 8 1023.4 - 0.0

Other Formats:

Comma delimited format used in spreadsheet applications
http://www.bom.gov.au/fwo/IDV60801/IDV60801.95825.axf

JavaScript Object Notation format (JSON) in row-major order
http://www.bom.gov.au/fwo/IDV60801/IDV60801.95825.json